ダブリン空港の過去48時間の天気

ダブリン空港 (Dublin Airport)

現在時刻: 10/1 18:00 IST (10/1 17:00 UTC) 以下の時間は現地時間です。

過去48時間のMETAR気象情報
時間 風向 風速(m/s) 視程 気温(℃) 湿度(%) 気圧(hPa) 天気現象
1 17:30 南東 4 10km以上 11 62 992
1 17:00 南南東 4 10km以上 11 67 993
1 16:30 南東 5 10km以上 11 62 993
1 16:00 南東 5 10km以上 11 67 993
1 15:30 南東 4 10km以上 11 67 994
1 15:00 南東 4 10km以上 11 67 994
1 14:30 南東 5 10km以上 12 62 994
1 14:00 南南東 4 10km以上 11 67 995
1 13:30 南東 3 10km以上 11 67 995
1 13:00 2 10km以上 12 58 996
1 12:30 南西 2 10km以上 12 58 996
1 12:00 3 10km以上 11 67 996
1 11:30 南西 2 10km以上 11 67 997
1 11:00 南西 3 10km以上 10 76 997
1 10:30 西南西 3 10km以上 9 76 997
1 10:00 南西 2 10km以上 8 81 997
1 09:30 不定 2 10km以上 7 87 998
1 09:00 南西 2 10km以上 6 93 998
1 08:30 西南西 2 10km以上 5 93 998
1 08:00 西南西 2 10km以上 5 93 998
1 07:30 西南西 3 10km以上 4 93 998
1 07:00 西 4 10km以上 4 93 998
1 06:30 西 4 10km以上 4 93 998
1 06:00 西南西 4 10km以上 5 87 999
1 05:30 西南西 4 10km以上 5 93 999
1 05:00 西南西 4 10km以上 5 93 999
1 04:30 西 3 10km以上 5 93 999
1 04:00 西南西 4 10km以上 5 93 999
1 03:30 西南西 4 10km以上 5 100 1000
1 03:00 西南西 3 10km以上 6 93 1000
1 02:30 西南西 3 10km以上 5 93 1000
1 02:00 西 3 10km以上 6 87 1000
1 01:30 西 3 10km以上 6 93 1000
1 01:00 西 3 10km以上 7 87 1001
1 00:30 西 3 10km以上 7 93 1001
1 00:00 西 4 10km以上 7 93 1001
30 23:30 西 4 10km以上 6 93 1001
30 23:00 西 5 10km以上 7 87 1000
30 22:30 西 4 10km以上 7 93 1000
30 22:00 西 5 10km以上 8 87 1000
30 21:30 西 4 10km以上 8 87 1000
30 21:00 西北西 5 10km以上 9 87 1001
30 20:30 西 4 10km以上 9 93 1000
30 20:00 西 4 10km以上 10 87 1000
30 19:30 西 4 10km以上 10 94 1000
30 19:00 西 4 10km以上 10 94 1000
30 18:30 西 3 10km以上 10 94 1000
30 18:00 北西 4 10km以上 10 87 999 弱いしゅう雨
30 17:30 北西 5 10km以上 10 94 999
30 17:00 北西 6 10km以上 11 87 999 弱いしゅう雨
30 16:30 北西 6 10km以上 12 88 999
30 16:00 北西 7 10km以上 11 94 999 弱いしゅう雨
30 15:30 北西 5 10km以上 12 94 999 弱いしゅう雨
30 15:00 北西 6 5000m 12 94 999 弱いしゅう雨
30 14:30 西南西 2 5000m 13 88 998 弱いしゅう雨
30 14:00 西 3 10km以上 14 77 998
30 13:30 西 4 10km以上 14 82 998 弱いしゅう雨
30 13:00 西 4 10km以上 14 82 998
30 12:30 西 4 10km以上 14 82 998
30 12:00 西 4 10km以上 13 88 998
30 11:30 西 6 10km以上 13 88 998 弱い雨
30 11:00 西南西 4 10km以上 13 88 998
30 10:30 西 5 10km以上 13 88 998
30 10:00 西 5 10km以上 12 94 998
30 09:30 西 4 10km以上 12 94 998
30 09:00 西 5 10km以上 12 94 997
30 08:30 西 4 10km以上 12 94 997
30 08:00 西 5 7000m 12 94 997 弱い雨
30 07:30 南南東 4 6000m 13 94 996 弱い雨
30 07:00 南南東 5 10km以上 13 94 996 弱い雨
30 06:30 南南東 6 10km以上 13 94 997 弱い雨
30 06:00 南南東 5 10km以上 13 94 997 弱い雨
30 05:30 南南東 5 10km以上 14 82 998 弱い雨
30 05:00 5 10km以上 14 82 999 弱い雨
30 04:30 南南東 6 10km以上 13 88 999
30 04:00 南南東 5 10km以上 13 88 1000 弱い雨
30 03:30 南南東 6 10km以上 12 88 1001
30 03:00 南南東 7 10km以上 13 82 1002
30 02:30 南南東 7 10km以上 13 77 1002
30 02:00 6 10km以上 12 82 1003
30 01:30 6 10km以上 12 82 1003
30 01:00 6 10km以上 12 82 1004 弱い雨
30 00:30 南南東 5 10km以上 12 77 1005 弱い雨
30 00:00 南東 4 10km以上 12 77 1006 弱い雨
29 23:30 南南東 6 10km以上 13 67 1007 弱い雨
29 23:00 6 10km以上 12 71 1007 弱い雨
29 22:30 南南東 5 10km以上 12 77 1008
29 22:00 6 10km以上 12 71 1009
29 21:30 南南東 5 10km以上 12 71 1009
29 21:00 南南東 5 10km以上 12 71 1010
29 20:30 6 10km以上 12 67 1010
29 20:00 5 10km以上 13 62 1010
29 19:30 南南西 4 10km以上 13 67 1011
29 19:00 5 10km以上 13 67 1011
29 18:30 南南西 5 10km以上 13 62 1011
EIDW 011630Z 14007KT 100V170 9999 FEW022CB BKN100 11/04 Q0992 TEMPO 4000 SHRA
EIDW 011600Z 15008KT 110V170 9999 FEW022CB BKN120 11/05 Q0993 NOSIG
EIDW 011530Z 14009KT 110V170 9999 FEW025 BKN120 11/04 Q0993 NOSIG
EIDW 011500Z 14009KT 100V170 9999 SCT025 BKN120 11/05 Q0993 NOSIG
EIDW 011430Z 13008KT 100V160 9999 SCT025 BKN200 11/05 Q0994 NOSIG
EIDW 011400Z 13008KT 090V160 9999 SCT022 BKN200 11/05 Q0994 NOSIG
EIDW 011330Z 13009KT 080V170 9999 FEW022 BKN200 12/05 Q0994 NOSIG
EIDW 011300Z 15008KT 100V160 9999 FEW018 SCT044 BKN200 11/05 Q0995 NOSIG
EIDW 011230Z 14006KT 100V170 9999 FEW018 SCT038 11/05 Q0995 NOSIG
EIDW 011200Z 18004KT 130V260 9999 SCT029 SCT250 12/04 Q0996 NOSIG
EIDW 011130Z 23004KT 130V290 9999 SCT029 SCT250 12/04 Q0996 NOSIG
EIDW 011100Z 19006KT 120V240 9999 SCT027 SCT250 11/05 Q0996 NOSIG
EIDW 011030Z 23004KT 060V280 9999 FEW018 11/05 Q0997 NOSIG
EIDW 011000Z 23005KT 170V270 9999 FEW018 10/06 Q0997 NOSIG
EIDW 010930Z 25005KT 200V280 9999 FEW020 SCT220 09/05 Q0997 NOSIG
EIDW 010900Z 23004KT 170V290 9999 FEW020 SCT220 08/05 Q0997 NOSIG
EIDW 010830Z VRB03KT 9999 FEW020 07/05 Q0998 NOSIG
EIDW 010800Z 23004KT 180V280 9999 FEW020 06/05 Q0998 NOSIG
EIDW 010730Z 24004KT 210V300 9999 FEW010 05/04 Q0998 NOSIG
EIDW 010700Z 25004KT 200V280 9999 FEW010 05/04 Q0998 NOSIG
EIDW 010630Z 25005KT 230V290 CAVOK 04/03 Q0998 NOSIG
EIDW 010600Z 26007KT 230V290 CAVOK 04/03 Q0998 NOSIG
EIDW 010530Z 26008KT CAVOK 04/03 Q0998 NOSIG
EIDW 010500Z 25007KT CAVOK 05/03 Q0999 NOSIG
EIDW 010430Z 25008KT 210V280 CAVOK 05/04 Q0999 NOSIG
EIDW 010400Z 25008KT 210V290 CAVOK 05/04 Q0999 NOSIG
EIDW 010330Z 26006KT 230V290 CAVOK 05/04 Q0999 NOSIG
EIDW 010300Z 25007KT CAVOK 05/04 Q0999 NOSIG
EIDW 010230Z 25007KT 220V280 CAVOK 05/05 Q1000 NOSIG
EIDW 010200Z 25006KT 210V280 CAVOK 06/05 Q1000 NOSIG
EIDW 010130Z 25006KT 230V290 CAVOK 05/04 Q1000 NOSIG
EIDW 010100Z 26006KT 220V290 CAVOK 06/04 Q1000 NOSIG
EIDW 010030Z 26005KT CAVOK 06/05 Q1000 NOSIG
EIDW 010000Z 26006KT 210V290 CAVOK 07/05 Q1001 NOSIG
EIDW 302330Z 26006KT 230V290 CAVOK 07/06 Q1001 NOSIG
EIDW 302300Z 27007KT CAVOK 07/06 Q1001 NOSIG
EIDW 302230Z 27008KT CAVOK 06/05 Q1001 NOSIG
EIDW 302200Z 28009KT CAVOK 07/05 Q1000 NOSIG
EIDW 302130Z 27008KT CAVOK 07/06 Q1000 NOSIG
EIDW 302100Z 28009KT CAVOK 08/06 Q1000 NOSIG
EIDW 302030Z 28008KT 9999 FEW020 BKN150 08/06 Q1000 NOSIG
EIDW 302000Z 29009KT 9999 FEW015 SCT030 BKN060 09/07 Q1001 NOSIG
EIDW 301930Z 28008KT 9999 FEW015 BKN060 09/08 Q1000 NOSIG
EIDW 301900Z 27007KT 9999 FEW010 BKN045 10/08 Q1000 NOSIG
EIDW 301830Z 27008KT 9999 FEW007 BKN045 10/09 Q1000 NOSIG
EIDW 301800Z 27007KT 9999 FEW007 BKN040 10/09 Q1000 NOSIG
EIDW 301730Z 28006KT 9999 FEW007 BKN045 10/09 Q1000 NOSIG
EIDW 301700Z 31008KT 9999 -SHRA FEW007 FEW020CB BKN050 10/08 Q0999 NOSIG
EIDW 301630Z 31010KT 9999 FEW010 FEW020CB BKN035 10/09 Q0999 NOSIG
EIDW 301600Z 31012KT 9999 -SHRA FEW010 FEW020CB BKN035 11/09 Q0999 NOSIG
EIDW 301530Z 31012KT 9999 FEW008 FEW020CB BKN035 12/10 Q0999 NOSIG
EIDW 301500Z 31014KT 9999 -SHRA FEW008 FEW020CB BKN032 11/10 Q0999 NOSIG
EIDW 301430Z 31010KT 9999 -SHRA SCT007 FEW020CB BKN050 12/11 Q0999 NOSIG
EIDW 301400Z 31012KT 5000 -SHRA FEW006 BKN020CB 12/11 Q0999 BECMG 9999
EIDW 301330Z 24004KT 200V270 5000 -SHRA FEW006 SCT020CB BKN035 13/11 Q0998 TEMPO 4000 SHRA
EIDW 301300Z 26005KT 210V290 9999 FEW018CB SCT022 BKN070 14/10 Q0998 NOSIG
EIDW 301230Z 27008KT 220V300 9999 -SHRA FEW012 FEW018CB BKN080 14/11 Q0998 NOSIG
EIDW 301200Z 26007KT 230V290 9999 FEW012 SCT027 BKN080 14/11 Q0998 NOSIG
EIDW 301130Z 26007KT 230V290 9999 FEW012 SCT020 BKN038 14/11 Q0998 NOSIG
EIDW 301100Z 27008KT 230V290 9999 FEW010 BKN018 BKN037 13/11 Q0998 NOSIG
EIDW 301030Z 27011KT 230V290 9999 -RA FEW009 BKN015 BKN034 13/11 Q0998 NOSIG
EIDW 301000Z 25007KT 210V310 9999 FEW009 BKN015 BKN120 13/11 Q0998 NOSIG
EIDW 300930Z 26009KT 220V300 9999 FEW007 SCT013 BKN130 13/11 Q0998 NOSIG
EIDW 300900Z 26010KT 230V300 9999 FEW005 BKN009 BKN017 12/11 Q0998 NOSIG
EIDW 300830Z 26008KT 230V290 9999 FEW005 BKN009 BKN023 12/11 Q0998 NOSIG
EIDW 300800Z 26010KT 230V290 9999 FEW005 BKN009 BKN023 12/11 Q0997 NOSIG
EIDW 300730Z 26008KT 230V290 9999 FEW005 BKN013 BKN030 12/11 Q0997 NOSIG
EIDW 300700Z 28010KT 7000 -RA FEW005 BKN010 BKN027 12/11 Q0997 NOSIG
EIDW 300630Z 15008KT 110V170 6000 -RA FEW010 SCT020 BKN040 13/12 Q0996 NOSIG
EIDW 300600Z 15009KT 9999 -RA FEW020 SCT050 BKN200 13/12 Q0996 NOSIG
EIDW 300530Z 16011KT 9999 -RA SCT020 SCT035 BKN045 13/12 Q0997 NOSIG
EIDW 300500Z 16010KT 120V180 9999 -RA FEW020 SCT035 BKN045 13/12 Q0997 NOSIG
EIDW 300430Z 16010KT 150V210 9999 -RA FEW020 BKN040 BKN090 14/11 Q0998 NOSIG
EIDW 300400Z 17010KT 130V200 9999 -RA FEW020 BKN040 14/11 Q0999 NOSIG
EIDW 300330Z 16011KT 9999 FEW020 SCT035 BKN040 13/11 Q0999 NOSIG
EIDW 300300Z 16010KT 140V200 9999 -RA FEW020 SCT035 BKN050 13/11 Q1000 NOSIG
EIDW 300230Z 15011KT 9999 FEW020 SCT035 BKN050 12/10 Q1001 NOSIG
EIDW 300200Z 15013KT 9999 FEW020 SCT035 BKN045 13/10 Q1002 NOSIG
EIDW 300130Z 16014KT 9999 FEW020 SCT035 BKN045 13/09 Q1002 NOSIG
EIDW 300100Z 17012KT 140V200 9999 FEW020 SCT080 BKN100 12/09 Q1003 NOSIG
EIDW 300030Z 17012KT 150V210 9999 FEW030 SCT080 BKN100 12/09 Q1003 NOSIG
EIDW 300000Z 18012KT 150V230 9999 -RA FEW020 SCT080 BKN100 12/09 Q1004 NOSIG
EIDW 292330Z 16010KT 120V190 9999 -RA FEW020 SCT050 BKN080 12/08 Q1005 NOSIG
EIDW 292300Z 14008KT 110V170 9999 -RA FEW020 SCT035 BKN050 12/08 Q1006 NOSIG
EIDW 292230Z 16011KT 120V190 9999 -RA FEW020 BKN060 BKN080 13/07 Q1007 NOSIG
EIDW 292200Z 17012KT 130V220 9999 -RA FEW020 SCT080 BKN100 12/07 Q1007 NOSIG
EIDW 292130Z 16009KT 120V190 9999 FEW022 BKN100 12/08 Q1008 NOSIG
EIDW 292100Z 17012KT 9999 FEW022 BKN110 12/07 Q1009 NOSIG
EIDW 292030Z 16009KT 9999 FEW022 BKN110 12/07 Q1009 NOSIG
EIDW 292000Z 16010KT 9999 FEW018 SCT050 12/07 Q1010 NOSIG
EIDW 291930Z 18011KT 9999 FEW018 BKN050 12/06 Q1010 NOSIG
EIDW 291900Z 19009KT 150V240 9999 FEW018 BKN050 13/06 Q1010 NOSIG
EIDW 291830Z 20007KT 160V230 9999 FEW018 BKN050 BKN200 13/07 Q1011 NOSIG
EIDW 291800Z 19009KT 160V250 9999 FEW016 BKN060 BKN200 13/07 Q1011 NOSIG
EIDW 291730Z 20009KT 170V240 9999 FEW018 SCT050 BKN200 13/06 Q1011 NOSIG